Santa Isabel, Brazil
Current Conditions -  °F | °C
As of 4:00 AM on Saturday 25 Oct 2014 (Local Time) from SBGR Reporting Station
Clear Clear  
Wind Chill: 19°   Ceiling: Unl
Heat Index: 19°   Visibility: 4mi
Dew Point: 17°   Wind: 2mph
Humidity: 88%   Direction: 50°NE
Pressure: 29.97"   Gusts: NA
Location:  23.32°S, 46.22°W
Report Text: SBGR 250600Z 05002KT 7000 NSC 19/17 Q1015
Loading
Personal Weather Stations






























Interactive Weather Map
Tropical Storm Tracking
New forecast layout! Learn more

10-Day Weather Forecast

Advertisements
Track Severe Weather on mobile